sensor_id;sensor_type;location;lat;lon;timestamp;temperature;humidity
37646;DHT22;23489;49.600;6.138;2023-04-24T00:00:40;9.50;99.90
37646;DHT22;23489;49.600;6.138;2023-04-24T00:03:06;9.40;99.90
37646;DHT22;23489;49.600;6.138;2023-04-24T00:05:33;9.40;99.90
37646;DHT22;23489;49.600;6.138;2023-04-24T00:07:59;9.40;99.90
37646;DHT22;23489;49.600;6.138;2023-04-24T00:10:25;9.40;99.90
37646;DHT22;23489;49.600;6.138;2023-04-24T00:12:51;9.30;99.90
37646;DHT22;23489;49.600;6.138;2023-04-24T00:15:16;9.40;99.90
37646;DHT22;23489;49.600;6.138;2023-04-24T00:17:42;9.40;99.90
37646;DHT22;23489;49.600;6.138;2023-04-24T00:20:08;9.50;99.90
37646;DHT22;23489;49.600;6.138;2023-04-24T00:22:35;9.40;99.90
37646;DHT22;23489;49.600;6.138;2023-04-24T00:25:01;9.40;99.90
37646;DHT22;23489;49.600;6.138;2023-04-24T00:27:26;9.40;99.90
37646;DHT22;23489;49.600;6.138;2023-04-24T00:29:52;9.30;99.90
37646;DHT22;23489;49.600;6.138;2023-04-24T00:32:18;9.30;99.90
37646;DHT22;23489;49.600;6.138;2023-04-24T00:34:44;9.30;99.90
37646;DHT22;23489;49.600;6.138;2023-04-24T00:37:10;9.30;99.90
37646;DHT22;23489;49.600;6.138;2023-04-24T00:39:37;9.30;99.90
37646;DHT22;23489;49.600;6.138;2023-04-24T00:42:03;9.30;99.90
37646;DHT22;23489;49.600;6.138;2023-04-24T00:44:32;9.20;99.90
37646;DHT22;23489;49.600;6.138;2023-04-24T00:46:58;9.20;99.90
37646;DHT22;23489;49.600;6.138;2023-04-24T00:49:24;9.10;99.90
37646;DHT22;23489;49.600;6.138;2023-04-24T00:51:50;9.00;99.90
37646;DHT22;23489;49.600;6.138;2023-04-24T00:54:16;8.90;99.90
37646;DHT22;23489;49.600;6.138;2023-04-24T00:56:42;8.90;99.90
37646;DHT22;23489;49.600;6.138;2023-04-24T00:59:09;8.90;99.90
37646;DHT22;23489;49.600;6.138;2023-04-24T01:01:35;8.80;99.90
37646;DHT22;23489;49.600;6.138;2023-04-24T01:04:00;8.70;99.90
37646;DHT22;23489;49.600;6.138;2023-04-24T01:06:27;8.60;99.90
37646;DHT22;23489;49.600;6.138;2023-04-24T01:08:54;8.50;99.90
37646;DHT22;23489;49.600;6.138;2023-04-24T01:11:21;8.40;99.90
37646;DHT22;23489;49.600;6.138;2023-04-24T01:13:47;8.20;99.90
37646;DHT22;23489;49.600;6.138;2023-04-24T01:16:13;8.10;99.90
37646;DHT22;23489;49.600;6.138;2023-04-24T01:18:39;8.00;99.90
37646;DHT22;23489;49.600;6.138;2023-04-24T01:21:04;8.00;99.90
37646;DHT22;23489;49.600;6.138;2023-04-24T01:23:30;7.90;99.90
37646;DHT22;23489;49.600;6.138;2023-04-24T01:25:56;7.80;99.90
37646;DHT22;23489;49.600;6.138;2023-04-24T01:28:21;7.80;99.90
37646;DHT22;23489;49.600;6.138;2023-04-24T01:30:47;7.70;99.90
37646;DHT22;23489;49.600;6.138;2023-04-24T01:33:13;7.70;99.90
37646;DHT22;23489;49.600;6.138;2023-04-24T01:35:38;7.60;99.90
37646;DHT22;23489;49.600;6.138;2023-04-24T01:38:04;7.60;99.90
37646;DHT22;23489;49.600;6.138;2023-04-24T01:40:31;7.60;99.90
37646;DHT22;23489;49.600;6.138;2023-04-24T01:42:57;7.50;99.90
37646;DHT22;23489;49.600;6.138;2023-04-24T01:45:22;7.50;99.90
37646;DHT22;23489;49.600;6.138;2023-04-24T01:47:48;7.40;99.90
37646;DHT22;23489;49.600;6.138;2023-04-24T01:50:16;7.40;99.90
37646;DHT22;23489;49.600;6.138;2023-04-24T01:52:42;7.30;99.90
37646;DHT22;23489;49.600;6.138;2023-04-24T01:55:09;7.30;99.90
37646;DHT22;23489;49.600;6.138;2023-04-24T01:57:34;7.30;99.90
37646;DHT22;23489;49.600;6.138;2023-04-24T02:00:00;7.30;99.90
37646;DHT22;23489;49.600;6.138;2023-04-24T02:02:28;7.30;99.90
37646;DHT22;23489;49.600;6.138;2023-04-24T02:04:56;7.30;99.90
37646;DHT22;23489;49.600;6.138;2023-04-24T02:07:22;7.30;99.90
37646;DHT22;23489;49.600;6.138;2023-04-24T02:09:47;7.30;99.90
37646;DHT22;23489;49.600;6.138;2023-04-24T02:12:14;7.30;99.90
37646;DHT22;23489;49.600;6.138;2023-04-24T02:14:40;7.20;99.90
37646;DHT22;23489;49.600;6.138;2023-04-24T02:17:05;7.20;99.90
37646;DHT22;23489;49.600;6.138;2023-04-24T02:19:32;7.10;99.90
37646;DHT22;23489;49.600;6.138;2023-04-24T02:21:57;7.10;99.90
37646;DHT22;23489;49.600;6.138;2023-04-24T02:24:23;7.00;99.90
37646;DHT22;23489;49.600;6.138;2023-04-24T02:26:48;7.00;99.90
37646;DHT22;23489;49.600;6.138;2023-04-24T02:29:14;7.00;99.90
37646;DHT22;23489;49.600;6.138;2023-04-24T02:31:40;7.00;99.90
37646;DHT22;23489;49.600;6.138;2023-04-24T02:34:06;7.10;99.90
37646;DHT22;23489;49.600;6.138;2023-04-24T02:36:32;7.20;99.90
37646;DHT22;23489;49.600;6.138;2023-04-24T02:38:57;7.20;99.90
37646;DHT22;23489;49.600;6.138;2023-04-24T02:41:23;7.20;99.90
37646;DHT22;23489;49.600;6.138;2023-04-24T02:43:48;7.30;99.90
37646;DHT22;23489;49.600;6.138;2023-04-24T02:46:14;7.30;99.90
37646;DHT22;23489;49.600;6.138;2023-04-24T02:48:39;7.30;99.90
37646;DHT22;23489;49.600;6.138;2023-04-24T02:51:05;7.30;99.90
37646;DHT22;23489;49.600;6.138;2023-04-24T02:53:32;7.40;99.90
37646;DHT22;23489;49.600;6.138;2023-04-24T02:55:58;7.40;99.90
37646;DHT22;23489;49.600;6.138;2023-04-24T02:58:24;7.50;99.90
37646;DHT22;23489;49.600;6.138;2023-04-24T03:00:53;7.50;99.90
37646;DHT22;23489;49.600;6.138;2023-04-24T03:03:20;7.60;99.90
37646;DHT22;23489;49.600;6.138;2023-04-24T03:05:46;7.70;99.90
37646;DHT22;23489;49.600;6.138;2023-04-24T03:08:12;7.70;99.90
37646;DHT22;23489;49.600;6.138;2023-04-24T03:10:38;7.70;99.90
37646;DHT22;23489;49.600;6.138;2023-04-24T03:13:03;7.70;99.90
37646;DHT22;23489;49.600;6.138;2023-04-24T03:15:29;7.70;99.90
37646;DHT22;23489;49.600;6.138;2023-04-24T03:17:55;7.70;99.90
37646;DHT22;23489;49.600;6.138;2023-04-24T03:20:20;7.70;99.90
37646;DHT22;23489;49.600;6.138;2023-04-24T03:22:47;7.70;99.90
37646;DHT22;23489;49.600;6.138;2023-04-24T03:25:12;7.70;99.90
37646;DHT22;23489;49.600;6.138;2023-04-24T03:27:38;7.80;99.90
37646;DHT22;23489;49.600;6.138;2023-04-24T03:30:26;7.70;99.90
37646;DHT22;23489;49.600;6.138;2023-04-24T03:32:57;7.70;99.90
37646;DHT22;23489;49.600;6.138;2023-04-24T03:35:26;7.70;99.90
37646;DHT22;23489;49.600;6.138;2023-04-24T03:37:53;7.70;99.90
37646;DHT22;23489;49.600;6.138;2023-04-24T03:40:37;7.70;99.90
37646;DHT22;23489;49.600;6.138;2023-04-24T03:43:10;7.70;99.90
37646;DHT22;23489;49.600;6.138;2023-04-24T03:45:36;7.70;99.90
37646;DHT22;23489;49.600;6.138;2023-04-24T03:48:02;7.80;99.90
37646;DHT22;23489;49.600;6.138;2023-04-24T03:50:28;7.80;99.90
37646;DHT22;23489;49.600;6.138;2023-04-24T03:52:54;7.80;99.90
37646;DHT22;23489;49.600;6.138;2023-04-24T03:55:32;7.80;99.90
37646;DHT22;23489;49.600;6.138;2023-04-24T03:57:58;7.80;99.90
37646;DHT22;23489;49.600;6.138;2023-04-24T04:00:24;7.80;99.90
37646;DHT22;23489;49.600;6.138;2023-04-24T04:03:03;7.70;99.90
37646;DHT22;23489;49.600;6.138;2023-04-24T04:05:29;7.70;99.90
37646;DHT22;23489;49.600;6.138;2023-04-24T04:07:56;7.70;99.90
37646;DHT22;23489;49.600;6.138;2023-04-24T04:10:22;7.60;99.90
37646;DHT22;23489;49.600;6.138;2023-04-24T04:12:47;7.60;99.90
37646;DHT22;23489;49.600;6.138;2023-04-24T04:15:13;7.60;99.90
37646;DHT22;23489;49.600;6.138;2023-04-24T04:17:39;7.60;99.90
37646;DHT22;23489;49.600;6.138;2023-04-24T04:20:06;7.60;99.90
37646;DHT22;23489;49.600;6.138;2023-04-24T04:22:35;7.60;99.90
37646;DHT22;23489;49.600;6.138;2023-04-24T04:25:02;7.60;99.90
37646;DHT22;23489;49.600;6.138;2023-04-24T04:27:30;7.60;99.90
37646;DHT22;23489;49.600;6.138;2023-04-24T04:30:02;7.60;99.90
37646;DHT22;23489;49.600;6.138;2023-04-24T04:32:32;7.60;99.90
37646;DHT22;23489;49.600;6.138;2023-04-24T04:35:03;7.60;99.90
37646;DHT22;23489;49.600;6.138;2023-04-24T04:37:32;7.60;99.90
37646;DHT22;23489;49.600;6.138;2023-04-24T04:40:18;7.60;99.90
37646;DHT22;23489;49.600;6.138;2023-04-24T04:42:56;7.60;99.90
37646;DHT22;23489;49.600;6.138;2023-04-24T04:45:24;7.50;99.90
37646;DHT22;23489;49.600;6.138;2023-04-24T04:48:09;7.50;99.90
37646;DHT22;23489;49.600;6.138;2023-04-24T04:50:38;7.50;99.90
37646;DHT22;23489;49.600;6.138;2023-04-24T04:53:06;7.50;99.90
37646;DHT22;23489;49.600;6.138;2023-04-24T04:55:37;7.50;99.90
37646;DHT22;23489;49.600;6.138;2023-04-24T04:58:11;7.50;99.90
37646;DHT22;23489;49.600;6.138;2023-04-24T05:00:36;7.40;99.90
37646;DHT22;23489;49.600;6.138;2023-04-24T05:03:11;7.40;99.90
37646;DHT22;23489;49.600;6.138;2023-04-24T05:05:37;7.40;99.90
37646;DHT22;23489;49.600;6.138;2023-04-24T05:08:07;7.50;99.90
37646;DHT22;23489;49.600;6.138;2023-04-24T05:10:34;7.60;99.90
37646;DHT22;23489;49.600;6.138;2023-04-24T05:13:03;7.80;99.90
37646;DHT22;23489;49.600;6.138;2023-04-24T05:15:30;7.90;99.90
37646;DHT22;23489;49.600;6.138;2023-04-24T05:17:57;8.00;99.90
37646;DHT22;23489;49.600;6.138;2023-04-24T05:20:23;8.10;99.90
37646;DHT22;23489;49.600;6.138;2023-04-24T05:22:49;8.20;99.90
37646;DHT22;23489;49.600;6.138;2023-04-24T05:25:16;8.10;99.90
37646;DHT22;23489;49.600;6.138;2023-04-24T05:27:55;8.20;99.90
37646;DHT22;23489;49.600;6.138;2023-04-24T05:30:22;8.10;99.90
37646;DHT22;23489;49.600;6.138;2023-04-24T05:32:49;8.10;99.90
37646;DHT22;23489;49.600;6.138;2023-04-24T05:35:14;8.10;99.90
37646;DHT22;23489;49.600;6.138;2023-04-24T05:37:40;8.10;99.90
37646;DHT22;23489;49.600;6.138;2023-04-24T05:40:07;8.10;99.90
37646;DHT22;23489;49.600;6.138;2023-04-24T05:42:33;8.20;99.90
37646;DHT22;23489;49.600;6.138;2023-04-24T05:44:58;8.20;99.90
37646;DHT22;23489;49.600;6.138;2023-04-24T05:47:25;8.20;99.90
37646;DHT22;23489;49.600;6.138;2023-04-24T05:49:52;8.10;99.90
37646;DHT22;23489;49.600;6.138;2023-04-24T05:52:19;8.00;99.90
37646;DHT22;23489;49.600;6.138;2023-04-24T05:54:45;7.90;99.90
37646;DHT22;23489;49.600;6.138;2023-04-24T05:57:13;7.90;99.90
37646;DHT22;23489;49.600;6.138;2023-04-24T05:59:51;7.80;99.90
37646;DHT22;23489;49.600;6.138;2023-04-24T06:02:18;7.80;99.90
37646;DHT22;23489;49.600;6.138;2023-04-24T06:04:44;7.80;99.90
37646;DHT22;23489;49.600;6.138;2023-04-24T06:07:13;7.70;99.90
37646;DHT22;23489;49.600;6.138;2023-04-24T06:09:41;7.80;99.90
37646;DHT22;23489;49.600;6.138;2023-04-24T06:12:08;7.80;99.90
37646;DHT22;23489;49.600;6.138;2023-04-24T06:14:48;7.90;99.90
37646;DHT22;23489;49.600;6.138;2023-04-24T06:17:34;7.90;99.90
37646;DHT22;23489;49.600;6.138;2023-04-24T06:20:00;8.10;99.90
37646;DHT22;23489;49.600;6.138;2023-04-24T06:22:25;8.30;99.90
37646;DHT22;23489;49.600;6.138;2023-04-24T06:24:51;8.50;99.90
37646;DHT22;23489;49.600;6.138;2023-04-24T06:27:16;8.50;99.90
37646;DHT22;23489;49.600;6.138;2023-04-24T06:29:42;8.50;99.90
37646;DHT22;23489;49.600;6.138;2023-04-24T06:32:08;8.50;99.90
37646;DHT22;23489;49.600;6.138;2023-04-24T06:34:33;8.50;99.90
37646;DHT22;23489;49.600;6.138;2023-04-24T06:37:01;8.50;99.90
37646;DHT22;23489;49.600;6.138;2023-04-24T06:39:27;8.40;99.90
37646;DHT22;23489;49.600;6.138;2023-04-24T06:41:53;8.40;99.90
37646;DHT22;23489;49.600;6.138;2023-04-24T06:44:19;8.40;99.90
37646;DHT22;23489;49.600;6.138;2023-04-24T06:46:45;8.30;99.90
37646;DHT22;23489;49.600;6.138;2023-04-24T06:49:10;8.40;99.90
37646;DHT22;23489;49.600;6.138;2023-04-24T06:51:36;8.40;99.90
37646;DHT22;23489;49.600;6.138;2023-04-24T06:54:02;8.40;99.90
37646;DHT22;23489;49.600;6.138;2023-04-24T06:56:27;8.30;99.90
37646;DHT22;23489;49.600;6.138;2023-04-24T06:58:54;8.30;99.90
37646;DHT22;23489;49.600;6.138;2023-04-24T07:01:20;8.30;99.90
37646;DHT22;23489;49.600;6.138;2023-04-24T07:03:45;8.20;99.90
37646;DHT22;23489;49.600;6.138;2023-04-24T07:06:11;8.20;99.90
37646;DHT22;23489;49.600;6.138;2023-04-24T07:08:38;8.20;99.90
37646;DHT22;23489;49.600;6.138;2023-04-24T07:11:04;8.20;99.90
37646;DHT22;23489;49.600;6.138;2023-04-24T07:13:30;8.20;99.90
37646;DHT22;23489;49.600;6.138;2023-04-24T07:15:55;8.20;99.90
37646;DHT22;23489;49.600;6.138;2023-04-24T07:18:21;8.30;99.90
37646;DHT22;23489;49.600;6.138;2023-04-24T07:20:47;8.20;99.90
37646;DHT22;23489;49.600;6.138;2023-04-24T07:23:17;8.30;99.90
37646;DHT22;23489;49.600;6.138;2023-04-24T07:25:43;8.30;99.90
37646;DHT22;23489;49.600;6.138;2023-04-24T07:28:09;8.30;99.90
37646;DHT22;23489;49.600;6.138;2023-04-24T07:30:35;8.30;99.90
37646;DHT22;23489;49.600;6.138;2023-04-24T07:33:00;8.30;99.90
37646;DHT22;23489;49.600;6.138;2023-04-24T07:35:27;8.30;99.90
37646;DHT22;23489;49.600;6.138;2023-04-24T07:37:55;8.30;99.90
37646;DHT22;23489;49.600;6.138;2023-04-24T07:40:21;8.30;99.90
37646;DHT22;23489;49.600;6.138;2023-04-24T07:42:47;8.20;99.90
37646;DHT22;23489;49.600;6.138;2023-04-24T07:45:16;8.30;99.90
37646;DHT22;23489;49.600;6.138;2023-04-24T07:47:42;8.20;99.90
37646;DHT22;23489;49.600;6.138;2023-04-24T07:50:09;8.20;99.90
37646;DHT22;23489;49.600;6.138;2023-04-24T07:52:35;8.10;99.90
37646;DHT22;23489;49.600;6.138;2023-04-24T07:55:01;8.10;99.90
37646;DHT22;23489;49.600;6.138;2023-04-24T07:57:27;8.20;99.90
37646;DHT22;23489;49.600;6.138;2023-04-24T07:59:53;8.30;99.90
37646;DHT22;23489;49.600;6.138;2023-04-24T08:02:19;8.40;99.90
37646;DHT22;23489;49.600;6.138;2023-04-24T08:04:45;8.40;99.90
37646;DHT22;23489;49.600;6.138;2023-04-24T08:07:11;8.30;99.90
37646;DHT22;23489;49.600;6.138;2023-04-24T08:09:38;8.30;99.90
37646;DHT22;23489;49.600;6.138;2023-04-24T08:12:04;8.30;99.90
37646;DHT22;23489;49.600;6.138;2023-04-24T08:14:29;8.20;99.90
37646;DHT22;23489;49.600;6.138;2023-04-24T08:16:55;8.20;99.90
37646;DHT22;23489;49.600;6.138;2023-04-24T08:19:21;8.20;99.90
37646;DHT22;23489;49.600;6.138;2023-04-24T08:21:47;8.20;99.90
37646;DHT22;23489;49.600;6.138;2023-04-24T08:24:13;8.30;99.90
37646;DHT22;23489;49.600;6.138;2023-04-24T08:26:39;8.40;99.90
37646;DHT22;23489;49.600;6.138;2023-04-24T08:29:05;8.40;99.90
37646;DHT22;23489;49.600;6.138;2023-04-24T08:31:32;8.50;99.90
37646;DHT22;23489;49.600;6.138;2023-04-24T08:33:58;8.60;99.90
37646;DHT22;23489;49.600;6.138;2023-04-24T08:36:25;8.70;99.90
37646;DHT22;23489;49.600;6.138;2023-04-24T08:38:51;8.70;99.90
37646;DHT22;23489;49.600;6.138;2023-04-24T08:41:18;8.80;99.90
37646;DHT22;23489;49.600;6.138;2023-04-24T08:43:45;8.90;99.90
37646;DHT22;23489;49.600;6.138;2023-04-24T08:48:39;9.40;99.90
37646;DHT22;23489;49.600;6.138;2023-04-24T08:51:08;12.20;99.90
37646;DHT22;23489;49.600;6.138;2023-04-24T08:53:34;14.00;99.90
37646;DHT22;23489;49.600;6.138;2023-04-24T08:56:00;14.90;99.90
37646;DHT22;23489;49.600;6.138;2023-04-24T08:58:27;16.50;99.90
37646;DHT22;23489;49.600;6.138;2023-04-24T09:00:55;17.00;99.90
37646;DHT22;23489;49.600;6.138;2023-04-24T09:03:21;16.60;99.90
37646;DHT22;23489;49.600;6.138;2023-04-24T09:05:47;18.40;99.90
37646;DHT22;23489;49.600;6.138;2023-04-24T09:08:17;19.00;99.90
37646;DHT22;23489;49.600;6.138;2023-04-24T09:10:43;17.60;99.90
37646;DHT22;23489;49.600;6.138;2023-04-24T09:13:09;15.80;99.90
37646;DHT22;23489;49.600;6.138;2023-04-24T09:15:36;16.20;99.90
37646;DHT22;23489;49.600;6.138;2023-04-24T09:18:02;16.00;99.90
37646;DHT22;23489;49.600;6.138;2023-04-24T09:20:28;16.20;99.90
37646;DHT22;23489;49.600;6.138;2023-04-24T09:22:55;15.90;99.90
37646;DHT22;23489;49.600;6.138;2023-04-24T09:25:21;15.40;99.90
37646;DHT22;23489;49.600;6.138;2023-04-24T09:27:47;14.60;99.90
37646;DHT22;23489;49.600;6.138;2023-04-24T09:30:13;14.30;99.90
37646;DHT22;23489;49.600;6.138;2023-04-24T09:32:39;16.00;99.90
37646;DHT22;23489;49.600;6.138;2023-04-24T09:35:05;17.50;99.90
37646;DHT22;23489;49.600;6.138;2023-04-24T09:37:35;17.70;99.90
37646;DHT22;23489;49.600;6.138;2023-04-24T09:40:12;17.60;99.90
37646;DHT22;23489;49.600;6.138;2023-04-24T09:42:38;16.10;99.90
37646;DHT22;23489;49.600;6.138;2023-04-24T09:45:09;15.30;99.90
37646;DHT22;23489;49.600;6.138;2023-04-24T09:47:39;14.60;99.90
37646;DHT22;23489;49.600;6.138;2023-04-24T09:50:14;13.70;99.90
37646;DHT22;23489;49.600;6.138;2023-04-24T09:55:45;12.30;99.90
37646;DHT22;23489;49.600;6.138;2023-04-24T09:58:15;11.70;99.90
37646;DHT22;23489;49.600;6.138;2023-04-24T10:00:41;11.60;99.90
37646;DHT22;23489;49.600;6.138;2023-04-24T10:03:07;12.60;99.90
37646;DHT22;23489;49.600;6.138;2023-04-24T10:05:37;13.90;99.90
37646;DHT22;23489;49.600;6.138;2023-04-24T10:08:06;14.90;99.90
37646;DHT22;23489;49.600;6.138;2023-04-24T10:10:33;15.80;99.90
37646;DHT22;23489;49.600;6.138;2023-04-24T10:13:00;16.80;99.90
37646;DHT22;23489;49.600;6.138;2023-04-24T10:15:27;17.30;99.90
37646;DHT22;23489;49.600;6.138;2023-04-24T10:17:53;17.00;99.90
37646;DHT22;23489;49.600;6.138;2023-04-24T10:20:20;16.30;99.90
37646;DHT22;23489;49.600;6.138;2023-04-24T10:22:51;15.00;99.90
37646;DHT22;23489;49.600;6.138;2023-04-24T10:25:22;14.30;99.90
37646;DHT22;23489;49.600;6.138;2023-04-24T10:27:48;13.70;99.90
37646;DHT22;23489;49.600;6.138;2023-04-24T10:30:15;12.60;99.90
37646;DHT22;23489;49.600;6.138;2023-04-24T10:32:40;12.60;99.90
37646;DHT22;23489;49.600;6.138;2023-04-24T10:35:06;12.40;99.90
37646;DHT22;23489;49.600;6.138;2023-04-24T10:38:15;12.30;99.90
37646;DHT22;23489;49.600;6.138;2023-04-24T10:40:30;12.10;99.90
37646;DHT22;23489;49.600;6.138;2023-04-24T10:42:56;11.90;99.90
37646;DHT22;23489;49.600;6.138;2023-04-24T10:45:22;11.60;99.90
37646;DHT22;23489;49.600;6.138;2023-04-24T10:47:51;11.30;99.90
37646;DHT22;23489;49.600;6.138;2023-04-24T10:50:17;11.30;99.90
37646;DHT22;23489;49.600;6.138;2023-04-24T10:52:46;11.10;99.90
37646;DHT22;23489;49.600;6.138;2023-04-24T10:55:13;11.30;99.90
37646;DHT22;23489;49.600;6.138;2023-04-24T10:57:39;11.70;99.90
37646;DHT22;23489;49.600;6.138;2023-04-24T11:02:38;12.10;99.90
37646;DHT22;23489;49.600;6.138;2023-04-24T11:05:04;12.50;99.90
37646;DHT22;23489;49.600;6.138;2023-04-24T11:07:30;12.40;99.90
37646;DHT22;23489;49.600;6.138;2023-04-24T11:09:58;12.30;99.90
37646;DHT22;23489;49.600;6.138;2023-04-24T11:12:26;11.90;99.90
37646;DHT22;23489;49.600;6.138;2023-04-24T11:17:37;12.80;99.90
37646;DHT22;23489;49.600;6.138;2023-04-24T11:20:06;13.40;99.90
37646;DHT22;23489;49.600;6.138;2023-04-24T11:22:35;13.30;99.90
37646;DHT22;23489;49.600;6.138;2023-04-24T11:25:04;13.50;99.90
37646;DHT22;23489;49.600;6.138;2023-04-24T11:27:31;13.30;99.90
37646;DHT22;23489;49.600;6.138;2023-04-24T11:29:59;12.70;99.90
37646;DHT22;23489;49.600;6.138;2023-04-24T11:35:01;12.10;99.90
37646;DHT22;23489;49.600;6.138;2023-04-24T11:37:27;12.30;99.90
37646;DHT22;23489;49.600;6.138;2023-04-24T11:39:54;12.10;99.90
37646;DHT22;23489;49.600;6.138;2023-04-24T11:42:20;11.70;99.90
37646;DHT22;23489;49.600;6.138;2023-04-24T11:44:46;11.90;99.90
37646;DHT22;23489;49.600;6.138;2023-04-24T11:47:12;11.90;99.90
37646;DHT22;23489;49.600;6.138;2023-04-24T11:49:38;12.30;99.90
37646;DHT22;23489;49.600;6.138;2023-04-24T11:52:04;13.00;99.90
37646;DHT22;23489;49.600;6.138;2023-04-24T11:54:30;13.30;99.90
37646;DHT22;23489;49.600;6.138;2023-04-24T11:56:56;13.60;99.90
37646;DHT22;23489;49.600;6.138;2023-04-24T11:59:22;13.70;99.90
37646;DHT22;23489;49.600;6.138;2023-04-24T12:01:48;13.40;99.90
37646;DHT22;23489;49.600;6.138;2023-04-24T12:04:14;13.80;99.90
37646;DHT22;23489;49.600;6.138;2023-04-24T12:06:40;14.00;99.90
37646;DHT22;23489;49.600;6.138;2023-04-24T12:09:05;13.80;99.90
37646;DHT22;23489;49.600;6.138;2023-04-24T12:11:32;14.20;99.90
37646;DHT22;23489;49.600;6.138;2023-04-24T12:13:58;14.60;99.90
37646;DHT22;23489;49.600;6.138;2023-04-24T12:16:34;14.50;99.90
37646;DHT22;23489;49.600;6.138;2023-04-24T12:18:59;13.90;99.90
37646;DHT22;23489;49.600;6.138;2023-04-24T12:21:27;13.70;99.90
37646;DHT22;23489;49.600;6.138;2023-04-24T12:23:55;13.50;99.90
37646;DHT22;23489;49.600;6.138;2023-04-24T12:26:21;13.20;99.90
37646;DHT22;23489;49.600;6.138;2023-04-24T12:28:48;13.30;99.90
37646;DHT22;23489;49.600;6.138;2023-04-24T12:31:14;13.50;99.90
37646;DHT22;23489;49.600;6.138;2023-04-24T12:33:40;13.50;99.90
37646;DHT22;23489;49.600;6.138;2023-04-24T12:36:06;13.60;99.90
37646;DHT22;23489;49.600;6.138;2023-04-24T12:38:32;13.30;99.90
37646;DHT22;23489;49.600;6.138;2023-04-24T12:41:11;13.10;99.90
37646;DHT22;23489;49.600;6.138;2023-04-24T12:43:37;13.30;99.90
37646;DHT22;23489;49.600;6.138;2023-04-24T12:46:03;13.30;99.90
37646;DHT22;23489;49.600;6.138;2023-04-24T12:48:29;13.70;99.90
37646;DHT22;23489;49.600;6.138;2023-04-24T12:50:56;13.50;99.90
37646;DHT22;23489;49.600;6.138;2023-04-24T12:53:22;13.80;99.90
37646;DHT22;23489;49.600;6.138;2023-04-24T12:55:47;13.80;99.90
37646;DHT22;23489;49.600;6.138;2023-04-24T12:58:21;13.40;99.90
37646;DHT22;23489;49.600;6.138;2023-04-24T13:00:46;13.30;99.90
37646;DHT22;23489;49.600;6.138;2023-04-24T13:03:12;13.50;99.90
37646;DHT22;23489;49.600;6.138;2023-04-24T13:05:38;13.60;99.90
37646;DHT22;23489;49.600;6.138;2023-04-24T13:08:03;13.50;99.90
37646;DHT22;23489;49.600;6.138;2023-04-24T13:10:29;13.50;99.90
37646;DHT22;23489;49.600;6.138;2023-04-24T13:12:55;13.60;99.90
37646;DHT22;23489;49.600;6.138;2023-04-24T13:15:20;13.60;99.90
37646;DHT22;23489;49.600;6.138;2023-04-24T13:17:46;13.80;99.90
37646;DHT22;23489;49.600;6.138;2023-04-24T13:20:12;13.80;99.90
37646;DHT22;23489;49.600;6.138;2023-04-24T13:22:37;13.60;99.90
37646;DHT22;23489;49.600;6.138;2023-04-24T13:25:03;13.80;99.90
37646;DHT22;23489;49.600;6.138;2023-04-24T13:27:29;13.80;99.90
37646;DHT22;23489;49.600;6.138;2023-04-24T13:29:54;13.70;99.90
37646;DHT22;23489;49.600;6.138;2023-04-24T13:32:20;13.60;99.90
37646;DHT22;23489;49.600;6.138;2023-04-24T13:34:45;13.70;99.90
37646;DHT22;23489;49.600;6.138;2023-04-24T13:37:11;13.90;99.90
37646;DHT22;23489;49.600;6.138;2023-04-24T13:39:36;13.70;99.90
37646;DHT22;23489;49.600;6.138;2023-04-24T13:42:02;13.50;99.90
37646;DHT22;23489;49.600;6.138;2023-04-24T13:44:28;13.20;99.90
37646;DHT22;23489;49.600;6.138;2023-04-24T13:46:54;13.50;99.90
37646;DHT22;23489;49.600;6.138;2023-04-24T13:49:22;13.80;99.90
37646;DHT22;23489;49.600;6.138;2023-04-24T13:51:50;13.70;99.90
37646;DHT22;23489;49.600;6.138;2023-04-24T13:54:15;13.40;99.90
37646;DHT22;23489;49.600;6.138;2023-04-24T13:56:41;13.40;99.90
37646;DHT22;23489;49.600;6.138;2023-04-24T13:59:07;13.30;99.90
37646;DHT22;23489;49.600;6.138;2023-04-24T14:01:32;13.40;99.90
37646;DHT22;23489;49.600;6.138;2023-04-24T14:03:58;13.20;99.90
37646;DHT22;23489;49.600;6.138;2023-04-24T14:06:24;13.50;99.90
37646;DHT22;23489;49.600;6.138;2023-04-24T14:08:49;13.40;99.90
37646;DHT22;23489;49.600;6.138;2023-04-24T14:11:16;13.40;99.90
37646;DHT22;23489;49.600;6.138;2023-04-24T14:13:43;13.40;99.90
37646;DHT22;23489;49.600;6.138;2023-04-24T14:16:09;13.30;99.90
37646;DHT22;23489;49.600;6.138;2023-04-24T14:18:35;13.20;99.90
37646;DHT22;23489;49.600;6.138;2023-04-24T14:21:02;12.90;99.90
37646;DHT22;23489;49.600;6.138;2023-04-24T14:23:28;12.90;99.90
37646;DHT22;23489;49.600;6.138;2023-04-24T14:25:53;12.90;99.90
37646;DHT22;23489;49.600;6.138;2023-04-24T14:28:19;12.70;99.90
37646;DHT22;23489;49.600;6.138;2023-04-24T14:30:45;12.20;99.90
37646;DHT22;23489;49.600;6.138;2023-04-24T14:33:11;12.00;99.90
37646;DHT22;23489;49.600;6.138;2023-04-24T14:35:38;11.70;99.90
37646;DHT22;23489;49.600;6.138;2023-04-24T14:38:04;11.60;99.90
37646;DHT22;23489;49.600;6.138;2023-04-24T14:40:29;11.60;99.90
37646;DHT22;23489;49.600;6.138;2023-04-24T14:42:56;11.50;99.90
37646;DHT22;23489;49.600;6.138;2023-04-24T14:45:23;11.50;99.90
37646;DHT22;23489;49.600;6.138;2023-04-24T14:47:48;11.40;99.90
37646;DHT22;23489;49.600;6.138;2023-04-24T14:50:14;11.20;99.90
37646;DHT22;23489;49.600;6.138;2023-04-24T14:52:40;11.00;99.90
37646;DHT22;23489;49.600;6.138;2023-04-24T14:55:05;10.80;99.90
37646;DHT22;23489;49.600;6.138;2023-04-24T14:57:32;10.60;99.90
37646;DHT22;23489;49.600;6.138;2023-04-24T14:59:57;10.50;99.90
37646;DHT22;23489;49.600;6.138;2023-04-24T15:02:23;10.50;99.90
37646;DHT22;23489;49.600;6.138;2023-04-24T15:04:48;10.30;99.90
37646;DHT22;23489;49.600;6.138;2023-04-24T15:07:14;10.20;99.90
37646;DHT22;23489;49.600;6.138;2023-04-24T15:09:40;10.30;99.90
37646;DHT22;23489;49.600;6.138;2023-04-24T15:12:05;10.30;99.90
37646;DHT22;23489;49.600;6.138;2023-04-24T15:14:31;10.40;99.90
37646;DHT22;23489;49.600;6.138;2023-04-24T15:16:56;10.40;99.90
37646;DHT22;23489;49.600;6.138;2023-04-24T15:19:22;10.30;99.90
37646;DHT22;23489;49.600;6.138;2023-04-24T15:21:48;10.40;99.90
37646;DHT22;23489;49.600;6.138;2023-04-24T15:24:13;10.60;99.90
37646;DHT22;23489;49.600;6.138;2023-04-24T15:26:39;10.80;99.90
37646;DHT22;23489;49.600;6.138;2023-04-24T15:29:04;11.10;99.90
37646;DHT22;23489;49.600;6.138;2023-04-24T15:31:30;11.30;99.90
37646;DHT22;23489;49.600;6.138;2023-04-24T15:33:55;11.40;99.90
37646;DHT22;23489;49.600;6.138;2023-04-24T15:36:21;11.50;99.90
37646;DHT22;23489;49.600;6.138;2023-04-24T15:38:46;11.80;99.90
37646;DHT22;23489;49.600;6.138;2023-04-24T15:41:12;11.90;99.90
37646;DHT22;23489;49.600;6.138;2023-04-24T15:43:37;11.90;99.90
37646;DHT22;23489;49.600;6.138;2023-04-24T15:46:04;11.90;99.90
37646;DHT22;23489;49.600;6.138;2023-04-24T15:48:30;12.00;99.90
37646;DHT22;23489;49.600;6.138;2023-04-24T15:50:55;11.90;99.90